No Frills All Thrills Trail Run

Age Group Results

April 02, 2016


Results Provided by Race Timing Services


8K Men: Top Finishers 20-29 30-39 40-49 50-59 60-99
8K Women: Top Finishers 1-19 20-29 30-39 40-49 50-59 60-99
4K Men: Top Finishers 1-19 20-29 30-39 40-49 50-59 60-99
4K Women: Top Finishers 1-19 20-29 30-39 40-49 50-59 60-99

8K

Top

Male Open Winners

Place Name City Bib No Age Overall Total Time Pace
1 Jeremy Doody Howell MI 271 32 1 30:18 6:06/M
Top

Female Open Winners

Place Name City Bib No Age Overall Total Time Pace
1 Helen Fuller Ann Arbor MI 280 33 4 34:49 7:00/M
Top

Male Masters Winners

Place Name City Bib No Age Overall Total Time Pace
1 Greg Seaman Brighton MI 357 56 2 34:32 6:57/M
Top

Female Masters Winners

Place Name City Bib No Age Overall Total Time Pace
1 Amy Hartman South Lyon MI 287 47 28 41:21 8:19/M
Top

Female 19 and Under

Place Name City Bib No Age Overall Total Time Pace
1 Sara Hartman South Lyon MI 288 14 20 39:31 7:57/M
Top

Male 20 to 29

Place Name City Bib No Age Overall Total Time Pace
1 Eric Stuart Allen Park MI 328 26 8 35:46 7:12/M
2 Adam Stephens Saline MI 325 29 23 40:06 8:04/M
3 Aaron Anspaugh Wyandotte MI 251 27 36 43:40 8:47/M
4 Philip Nicholson Shelby Township MI 310 28 44 47:05 9:28/M
5 Brandon Sekulovski Commerce Township MI 317 21 81 59:18 11:56/M
6 Kyle Thurston Howell MI 330 29 86 1:04:18 12:56/M
Top

Female 20 to 29

Place Name City Bib No Age Overall Total Time Pace
1 Melanie Brown Belleville MI 261 25 50 49:47 10:01/M
2 Steph Hildebrandt Belleville MI 291 25 55 50:05 10:05/M
3 Diane Balagna Waterford MI 253 23 82 59:18 11:56/M
Top

Male 30 to 39

Place Name City Bib No Age Overall Total Time Pace
1 Ryan Stephens Burr Oak MI 326 31 3 34:45 7:00/M
2 Matt Carpenter Hudson MI 350 38 5 34:50 7:01/M
3 Daniel Bergan East Lansing MI 257 39 13 37:26 7:32/M
4 Joe Anttila Howell MI 342 34 21 39:49 8:01/M
5 Romeo Cairo Detroit MI 262 38 24 40:11 8:05/M
6 Ryan Schave Clinton Township MI 315 38 30 41:44 8:24/M
7 Michael Spath Ypsilanti MI 322 36 34 43:08 8:41/M
8 Shawn Irwin Bloomfield Hills MI 293 30 54 49:58 10:03/M
9 Michael Kessler New Hudson MI 297 36 61 51:41 10:24/M
10 Nate Manore Macomb MI 301 35 80 59:16 11:55/M
Top

Female 30 to 39

Place Name City Bib No Age Overall Total Time Pace
1 Ashlee Wines Holly MI 353 32 22 40:04 8:04/M
2 Cristi Harrington White Lake MI 285 39 25 40:19 8:07/M
3 Kelley Kozloff Ann Arbor MI 299 39 29 41:29 8:21/M
4 Christie Asam Waterford MI 252 36 37 44:13 8:54/M
5 Heather Autry Howell MI 340 37 41 46:13 9:18/M
6 Sarah Manore Macomb MI 302 34 45 47:07 9:29/M
7 Shanon Darga Fenton MI 268 30 51 49:51 10:02/M
8 Tara Wiedbusch Bloomfield Hills MI 336 30 53 49:57 10:03/M
9 Nancy Kessler New Hudson MI 298 33 60 51:41 10:24/M
10 Kimberly Weingartz Fenton MI 335 35 69 53:21 10:44/M
11 Shawn Siddall Taylor MI 320 36 74 56:02 11:16/M
12 Jillian Crawford Allen Park MI 266 30 83 59:34 11:59/M
13 Amy Fessler Brighton MI 339 33 85 1:00:42 12:13/M
14 Lynne Frank Dundee MI 278 36 88 1:05:27 13:10/M
15 Valerie Schave Clinton Township MI 316 39 91 1:18:15 15:45/M
16 Ashleigh Farmer Wixom MI 274 32 92 1:18:15 15:45/M
Top

Male 40 to 49

Place Name City Bib No Age Overall Total Time Pace
1 Matt Stuk Pinckney MI 329 47 7 35:21 7:07/M
2 Michael Newstead Perry MI 309 44 10 36:48 7:24/M
3 Rich Benson Howell MI 188 46 12 37:11 7:29/M
4 William Stefaniak Macomb MI 324 44 15 38:43 7:47/M
5 Jeff Newstead Howell MI 308 40 18 39:19 7:55/M
6 Robert Harrington White Lake MI 286 43 26 40:19 8:07/M
7 Darin Horton Waterford MI 292 47 42 46:25 9:20/M
8 John McRoberts Birmingham MI 304 48 58 50:35 10:11/M
9 Paul Menosky Pinckney MI 343 45 62 51:52 10:26/M
10 Damon Stevens Swartz Creek MI 327 40 66 52:25 10:33/M
Top

Female 40 to 49

Place Name City Bib No Age Overall Total Time Pace
1 Michelle Bone Wixom MI 260 49 33 42:28 8:33/M
2 Tracy Faraoni Westland MI 273 49 47 48:10 9:41/M
3 Karen McLennan Fenton MI 303 41 52 49:51 10:02/M
4 Sara Card Sylvania OH 263 46 63 52:05 10:29/M
5 Denise Dashner Temperance MI 269 46 67 52:33 10:34/M
6 Lisa Oleary Howell MI 311 48 72 55:20 11:08/M
7 Marcy Shine Allen Park MI 318 41 77 57:36 11:35/M
8 Erica Fritz Romulus MI 279 40 89 1:13:11 14:44/M
9 Lisa Heineman Westland MI 290 44 90 1:18:15 15:45/M
Top

Male 50 to 59

Place Name City Bib No Age Overall Total Time Pace
1 Jeff Jackson Ann Arbor MI 294 54 6 35:19 7:06/M
2 Bill Berghoff Brighton MI 351 51 9 36:29 7:20/M
3 Dave Mann Detroit MI 300 55 11 37:02 7:27/M
4 Craig Mulhinch Troy MI 307 53 14 38:05 7:40/M
5 Wayne Siegued Plymouth MI 354 52 17 39:14 7:54/M
6 Lennie Brousseau Byron MI 359 59 19 39:23 7:55/M
7 Jim Debrincat Brighton MI 270 58 27 40:26 8:08/M
8 Bruce Berndt Farmington MI 258 57 31 42:08 8:29/M
9 Paul Farrugia Novi MI 275 57 32 42:09 8:29/M
10 Reed Swanson Ypsilanti MI 356 56 35 43:27 8:45/M
11 Tim Corrigan Pinckney MI 264 51 38 44:43 9:00/M
12 Phil French Howell MI 347 59 40 46:06 9:17/M
13 Ken Hartwig Ortonville MI 289 56 49 48:50 9:50/M
14 David Daniels Dearborn MI 267 53 64 52:07 10:29/M
15 Jeff Risch Whitmore Lake MI 314 51 65 52:08 10:29/M
16 Jim Zittel Waterford MI 344 52 68 52:33 10:34/M
17 Harold Akers Ferndale MI 250 56 76 57:22 11:33/M
18 Steve Benear Howell MI 256 50 84 1:00:41 12:13/M
Top

Female 50 to 59

Place Name City Bib No Age Overall Total Time Pace
1 Judy Berghoff Brighton MI 352 50 46 47:50 9:37/M
2 Rhonda Emery Northville MI 349 51 57 50:30 10:10/M
3 Terri Mezel Howell MI 305 50 71 55:20 11:08/M
4 Lonora Flores West Bloomfield MI 276 52 73 55:23 11:09/M
5 Janet Jasenak Brighton MI 295 59 75 56:12 11:18/M
Top

Male 60 & Over

Place Name City Bib No Age Overall Total Time Pace
1 Ron Carpenter Hudson MI 337 66 16 38:54 7:50/M
2 Brad Borgeson Brighton MI 358 64 43 46:46 9:25/M
3 Keith Wright Howell MI 341 65 48 48:22 9:44/M
4 Eduardo Sibils Kentwood MI 319 60 56 50:22 10:08/M
5 Gary Haf Plymouth MI 345 68 59 51:27 10:21/M
6 Ron Readman Fenton MI 355 67 70 53:55 10:51/M
7 Richard Porte Dearborn MI 312 64 78 58:41 11:48/M
8 Jim Luterek Northville MI 346 68 79 59:12 11:55/M
9 John Gialanella Birmingham MI 282 64 87 1:05:26 13:10/M
Top

Female 60 and Over

Place Name City Bib No Age Overall Total Time Pace
1 Lynn Stanfield Brighton MI 323 60 39 45:25 9:08/M
 

4K

Top

Male Open Winners

Place Name City Bib No Age Overall Total Time Pace
1 Billy Tanner Howell MI 219 54 1 19:02 7:40/M
Top

Female Open Winners

Place Name City Bib No Age Overall Total Time Pace
1 Olivia Menoskey Pinckney MI 233 15 4 19:54 8:01/M
Top

Male Masters Winners

Place Name City Bib No Age Overall Total Time Pace
1 Randy Gogowski White Lake MI 198 61 15 23:08 9:20/M
Top

Female Masters Winners

Place Name City Bib No Age Overall Total Time Pace
1 Evelyn Tertel Lincoln Park MI 220 43 10 21:36 8:43/M
Top

Male 19 and Under

Place Name City Bib No Age Overall Total Time Pace
1 Remy Fischer Brighton MI 193 14 2 19:42 7:57/M
2 Robby Grimm South Lyon MI 235 14 3 19:49 7:59/M
3 Connor Wallace Howell MI 225 8 6 20:48 8:23/M
4 Peter Hill Kingston MI 203 19 7 21:00 8:28/M
5 Eddie Haggerty Brighton MI 201 13 8 21:02 8:29/M
6 Jack Whitesel Howell MI 222 9 28 27:40 11:09/M
Top

Female 19 and Under

Place Name City Bib No Age Overall Total Time Pace
1 Hannah Menosky Pinckney MI 232 13 9 21:05 8:30/M
2 Morgan Aittama South Lyon MI 234 13 12 21:54 8:50/M
3 Mackenzie Johnson Howell MI 209 8 17 24:19 9:48/M
4 Monique Finet Brighton MI 229 10 22 25:10 10:09/M
5 Josie Fischer Brighton MI 192 11 23 26:38 10:44/M
6 Marissa Whitesel Howell MI 223 12 30 28:57 11:40/M
Top

Male 20 to 29

Place Name City Bib No Age Overall Total Time Pace
1 Jason Hupert Fenton MI 206 29 5 20:35 8:18/M
Top

Female 20 to 29

Place Name City Bib No Age Overall Total Time Pace
1 Cynthia Hupert Fenton MI 205 28 19 24:34 9:54/M
2 Zena Jasenak Brighton MI 207 22 43 35:13 14:12/M
Top

Male 30 to 39

Place Name City Bib No Age Overall Total Time Pace
1 Greg Lapointe Fenton MI 210 30 13 22:18 9:00/M
2 Zack Beecher Grand Blanc MI 187 30 16 23:51 9:37/M
3 Bill Gesaman Farmington Hills MI 196 33 21 25:08 10:08/M
4 Chris Fryer Wixom MI 195 39 25 27:24 11:03/M
5 Kevin Autry Howell MI 228 39 34 29:47 12:01/M
6 Anton Gonzales Waterford MI 199 37 49 45:31 18:21/M
Top

Female 30 to 39

Place Name City Bib No Age Overall Total Time Pace
1 Melissa Hill Biddix Brighton MI 204 32 11 21:43 8:45/M
2 Jaclyn Wallace Howell MI 224 38 18 24:19 9:48/M
3 Lisa Gesaman Farmington MI 197 33 20 25:08 10:08/M
4 Kristen Ward Highland MI 221 38 26 27:36 11:08/M
5 Lori Johnson Howell MI 208 34 31 29:05 11:44/M
6 Lisa Muscat South Lyon MI 212 34 35 30:21 12:14/M
7 Jaclyn Pilkiewicz Wixom MI 215 37 40 34:11 13:47/M
8 Tashena Gonzales Waterford MI 200 36 45 39:21 15:52/M
9 Kristie Lapointe Fenton MI 211 37 48 44:12 17:49/M
Top

Male 40 to 49

Place Name City Bib No Age Overall Total Time Pace
1 Scott Beaver Brighton MI 186 48 29 28:49 11:37/M
Top

Female 40 to 49

Place Name City Bib No Age Overall Total Time Pace
1 Cathy Fischer Brighton MI 191 48 24 26:42 10:46/M
2 Sarah Mayer Hartland MI 231 40 27 27:37 11:08/M
3 Leslie Shanlian Howell MI 218 45 32 29:25 11:52/M
4 Suzanne Cox Waterford MI 265 46 33 29:47 12:01/M
5 Dee Beaver Brighton MI 202 47 37 32:01 12:55/M
6 Ronda Pype Wixom MI 216 42 41 34:12 13:47/M
7 Miriam Finet Brighton MI 230 49 42 34:41 13:59/M
8 Tracey Paulson Ann Arbor MI 214 47 50 51:10 20:38/M
Top

Male 50 to 59

Place Name City Bib No Age Overall Total Time Pace
1 Domingo Valadez Temperance MI 331 56 47 43:43 17:38/M
Top

Female 50 to 59

Place Name City Bib No Age Overall Total Time Pace
1 Christine Verklan Dearborn MI 332 50 14 22:47 9:11/M
2 Charlene Odom New Hudson MI 213 59 38 33:14 13:24/M
Top

Male 60 & Over

Place Name City Bib No Age Overall Total Time Pace
1 Raymond Del Busto Bloomfield Hills MI 348 70 36 31:44 12:48/M
2 Hilory Earley Livonia MI 190 65 44 38:51 15:40/M
3 Harrison Hensley Pinckney MI 185 83 46 43:43 17:38/M
Top

Female 60 and Over

Place Name City Bib No Age Overall Total Time Pace
1 Ellen Sekerak Dearborn Heights MI 217 64 39 33:27 13:29/M